Ingeniero Alberto Acuna Ongay International Airport
MMCP : now visible

Airfield :











YOU CAN JOIN US ON...

 
LOGIN :

Register | Disclaimer

   EN    FR    IT 

 









Legend :    VFR   Marginal VFR   IFR   Intensive IFR   Very Intensive IFR
Visi :
Ceiling :
>= 8 km
>= 3000ft
5 to 8 km
1000 to 3000 ft
1500m to 5 km
500 to 1000 ft
800 to 1500m
200 to 500 ft
< 800m
< 200 ft
Symbols :   Thunderstorms  Fog  Heavy snow  Heavy precipitations  Wind > 20 kt






- Airport Elevation : 34 ft
- IATA code : CPE


MMCP - Ingeniero Alberto Acuna Ongay International

CURRENT METAR :
  • 230142Z 00000KT 7SM -RA OVC080 25/25 A2993 RMK 8/02/

EXPIRED METARs :
  • 230040Z 18005KT 4SM OVC100 25/24 A2992 RMK 8/02/
  • 222340Z 16008KT 7SM SCT010CB OVC080 24/23 A2991 RMK SLP117 52018 914 8/97/ RAE25, +TSRA VC W MOVG NW
  • 222306Z 12008KT 4SM RA SCT005CB OVC070 24/22 A2987 RMK 8/97/ +TSRA VC W MOVG NW
  • 222233Z 12020G30KT 2SM TSRA BKN010CB OVC080 30/23 A2987 RMK 8/97/ LWR VIS S +RA
  • 222140Z 14008KT 7SM SCT020 SCT080 BKN250 34/23 A2984 RMK 8/138 DSNT CB E

TAF AMD TAF MMCP
Valid from the 22 at 23:00 until the 23 at 18:00 UTC


222247Z 2223/2318 12030G40KT 1/2SM +TSRA OVC005CB
FM222330 12015KT 4SM TSRA OVC010CB
FM230100 14010KT 5SM -RA BKN015CB
FM230400 00000KT 6SM HZ BKN015 BKN120
TEMPO 2309/2313 3SM BR OVC005
FM231400 12005KT 6SM HZ SCT015 SCT120
MMFR FIR / North America



MET'MAP, your aeronautical weather chart ! - Copyright ORBIFLY December 2007 - Disclaimer

ORBIFLY MET'MAP TEAM :

Programming & Development : Alexandra Zaïnal
Original concept : Baudouin d'Aumeries
Technical & hardware support : Manuel Goepfert
Assistance : Marc-Olivier Méhu




SOURCES & CREDITS :

   NOAA       Earth
Advisory